Time;durP1;ratioP1;P1;durP2;ratioP2;P2;SDS_P1;SDS_P2;PMS_P1;PMS_P2;Temp;Humidity;BMP_temperature;BMP_pressure;BME280_temperature;BME280_humidity;BME280_pressure;Samples;Min_cycle;Max_cycle;Signal;HPM_P1;HPM_P2
2023/06/28 00:01:16;;;;;;;105.28;100.63;;;;;;;26.06;33.75;101780.72;5095096;28;20036;-76
2023/06/28 00:03:42;;;;;;;108.22;103.47;;;;;;;26.04;33.96;101783.00;5095903;28;20040;-76
2023/06/28 00:06:07;;;;;;;103.05;98.38;;;;;;;26.03;33.83;101786.09;5096527;28;20516;-77
2023/06/28 00:08:32;;;;;;;102.10;97.60;;;;;;;26.01;33.96;101778.13;5096192;28;20024;-75
2023/06/28 00:10:58;;;;;;;104.65;99.85;;;;;;;26.00;33.98;101783.97;5094775;28;20058;-75
2023/06/28 00:13:24;;;;;;;106.60;101.75;;;;;;;25.98;33.75;101775.16;5095776;28;20122;-75
2023/06/28 00:15:50;;;;;;;102.93;98.22;;;;;;;25.96;33.58;101772.72;5094755;28;20384;-77
2023/06/28 00:18:15;;;;;;;102.45;97.95;;;;;;;25.94;33.98;101779.72;5096541;28;20032;-76
2023/06/28 00:20:41;;;;;;;101.50;96.90;;;;;;;25.92;34.26;101779.22;5095580;28;20032;-77
2023/06/28 00:23:07;;;;;;;104.22;99.63;;;;;;;25.89;33.74;101780.69;5094707;28;20043;-76
2023/06/28 00:25:32;;;;;;;102.10;97.50;;;;;;;25.88;33.74;101779.06;5096084;28;20459;-76
2023/06/28 00:27:58;;;;;;;103.05;98.38;;;;;;;25.86;33.91;101787.69;5095691;28;20059;-75
2023/06/28 00:30:23;;;;;;;102.28;97.63;;;;;;;25.84;33.87;101784.38;5096050;28;20058;-75
2023/06/28 00:32:48;;;;;;;105.97;101.25;;;;;;;25.83;34.26;101787.47;5079872;28;20055;-76
2023/06/28 00:35:14;;;;;;;104.68;100.07;;;;;;;25.81;34.15;101779.50;5096930;28;20032;-76
2023/06/28 00:37:41;;;;;;;106.18;101.38;;;;;;;25.79;33.96;101780.97;5094569;28;20067;-75
2023/06/28 00:40:07;;;;;;;103.30;98.70;;;;;;;25.77;34.40;101780.47;5095779;28;20439;-76
2023/06/28 00:42:33;;;;;;;105.40;100.55;;;;;;;25.74;34.04;101779.16;5095167;28;20032;-74
2023/06/28 00:44:59;;;;;;;103.07;97.90;;;;;;;25.73;34.08;101780.28;5095123;28;20071;-75
2023/06/28 00:47:28;;;;;;;101.85;97.32;;;;;;;25.71;34.04;101782.56;5094416;28;20027;-77
2023/06/28 00:49:55;;;;;;;104.63;99.25;;;;;;;25.69;34.12;101785.63;5095347;28;20036;-75
2023/06/28 00:52:21;;;;;;;107.70;102.90;;;;;;;25.67;34.07;101784.31;5095923;28;20027;-75
2023/06/28 00:54:47;;;;;;;106.82;102.15;;;;;;;25.66;34.61;101786.28;5094597;28;20097;-75
2023/06/28 00:57:13;;;;;;;103.45;98.40;;;;;;;25.63;34.33;101781.41;5095842;28;20448;-75
2023/06/28 00:59:38;;;;;;;103.88;99.28;;;;;;;25.62;34.27;101779.75;5095467;28;20070;-76
2023/06/28 01:02:04;;;;;;;101.05;96.55;;;;;;;25.61;34.62;101777.31;5095088;28;20540;-76
2023/06/28 01:04:29;;;;;;;98.05;93.65;;;;;;;25.58;34.69;101773.25;5093906;28;20048;-76
2023/06/28 01:06:59;;;;;;;101.97;97.40;;;;;;;25.57;34.28;101779.91;5095184;28;20386;-76
2023/06/28 01:09:26;;;;;;;104.28;99.38;;;;;;;25.55;34.29;101782.19;5094976;28;20024;-76
2023/06/28 01:11:54;;;;;;;104.95;99.75;;;;;;;25.53;34.29;101778.91;5094872;28;20174;-76
2023/06/28 01:14:21;;;;;;;103.13;98.63;;;;;;;25.53;34.89;101786.38;5095107;28;20032;-75
2023/06/28 01:16:49;;;;;;;105.25;99.90;;;;;;;25.51;34.79;101785.91;5094839;28;20067;-76
2023/06/28 01:19:15;;;;;;;;;;;;;;;25.48;34.49;101782.63;5094010;28;20032;-76
2023/06/28 01:21:44;;;;;;;97.93;92.93;;;;;;;25.46;34.63;101770.25;5095267;28;19907;-75
2023/06/28 01:24:11;;;;;;;97.65;93.25;;;;;;;25.43;34.75;101765.38;5094747;28;20460;-80
2023/06/28 01:26:40;;;;;;;96.18;91.82;;;;;;;25.41;34.75;101760.16;5093095;28;20036;-76
2023/06/28 01:29:06;;;;;;;99.97;95.00;;;;;;;25.40;34.46;101771.50;5093422;28;20571;-76
2023/06/28 01:31:33;;;;;;;105.32;100.43;;;;;;;25.38;34.73;101771.84;5094632;28;20047;-76
2023/06/28 01:33:59;;;;;;;98.55;94.15;;;;;;;25.36;34.53;101763.06;5094404;28;20028;-75
2023/06/28 01:36:24;;;;;;;99.47;94.82;;;;;;;25.35;34.66;101766.97;5094488;28;20028;-76
2023/06/28 01:38:52;;;;;;;102.05;97.13;;;;;;;25.34;34.48;101765.31;5076759;28;20437;-76
2023/06/28 01:41:17;;;;;;;102.67;98.10;;;;;;;25.33;34.42;101772.00;5094978;28;20028;-76
2023/06/28 01:43:43;;;;;;;100.93;96.03;;;;;;;25.32;34.94;101764.00;5076238;28;20067;-76
2023/06/28 01:46:10;;;;;;;101.53;96.97;;;;;;;25.28;34.66;101763.84;5093078;28;20131;-75
2023/06/28 01:48:35;;;;;;;100.25;95.63;;;;;;;25.27;34.63;101753.88;5093073;28;20051;-77
2023/06/28 01:51:01;;;;;;;98.93;94.32;;;;;;;25.28;34.87;101760.25;5093035;28;20059;-75
2023/06/28 01:53:27;;;;;;;98.97;94.57;;;;;;;25.25;34.79;101758.94;5093081;28;20063;-81
2023/06/28 01:55:52;;;;;;;101.43;96.57;;;;;;;25.23;35.07;101761.22;5094167;28;20097;-78
2023/06/28 01:58:18;;;;;;;99.35;94.65;;;;;;;25.22;35.19;101754.03;5092950;28;20040;-77
2023/06/28 02:00:43;;;;;;;97.57;93.00;;;;;;;25.21;34.95;101755.19;5094116;28;20440;-76
2023/06/28 02:03:08;;;;;;;99.30;94.95;;;;;;;25.19;35.38;101758.25;5093996;28;20443;-76
2023/06/28 02:05:34;;;;;;;99.25;94.85;;;;;;;25.18;35.06;101761.34;5093962;28;20487;-76
2023/06/28 02:08:01;;;;;;;98.30;93.60;;;;;;;25.16;35.47;101752.50;5092562;28;20388;-76
2023/06/28 02:10:26;;;;;;;100.55;96.05;;;;;;;25.14;34.94;101755.59;5076139;28;20093;-76
2023/06/28 02:12:52;;;;;;;98.13;93.80;;;;;;;25.12;35.42;101749.56;5075703;28;20456;-77
2023/06/28 02:15:17;;;;;;;96.00;91.78;;;;;;;25.11;35.50;101755.41;5092581;28;20059;-77
2023/06/28 02:17:42;;;;;;;97.07;92.57;;;;;;;25.09;35.02;101752.16;5094106;28;20036;-81
2023/06/28 02:20:10;;;;;;;98.63;94.15;;;;;;;25.07;35.52;101748.88;5093724;28;20470;-76
2023/06/28 02:22:35;;;;;;;98.35;93.55;;;;;;;25.05;35.26;101747.25;5092893;28;20035;-79
2023/06/28 02:25:01;;;;;;;100.72;96.05;;;;;;;25.03;35.60;101746.75;5092235;28;20455;-78
2023/06/28 02:27:26;;;;;;;98.57;93.63;;;;;;;25.02;35.18;101752.59;5092467;28;20024;-76
2023/06/28 02:29:51;;;;;;;102.85;97.80;;;;;;;25.00;35.17;101744.63;5093649;28;20113;-84
2023/06/28 02:32:17;;;;;;;101.78;96.97;;;;;;;24.99;35.67;101747.69;5093729;28;20452;-76
2023/06/28 02:34:42;;;;;;;99.47;94.88;;;;;;;24.98;35.67;101735.03;5093924;28;20034;-77
2023/06/28 02:37:08;;;;;;;99.05;94.38;;;;;;;24.96;35.69;101746.38;5093044;28;20384;-77
2023/06/28 02:39:33;;;;;;;100.80;96.32;;;;;;;24.94;35.49;101742.31;5093593;28;20119;-76
2023/06/28 02:41:58;;;;;;;95.90;91.18;;;;;;;24.93;35.89;101740.69;5093601;28;20448;-78
2023/06/28 02:44:24;;;;;;;96.10;91.72;;;;;;;24.91;35.51;101743.75;5094055;28;20529;-77
2023/06/28 02:46:49;;;;;;;100.53;96.03;;;;;;;24.90;35.71;101733.84;5093787;28;20056;-77
2023/06/28 02:49:14;;;;;;;96.28;91.80;;;;;;;24.87;35.84;101731.69;5093434;28;20476;-76
2023/06/28 02:51:40;;;;;;;96.50;91.95;;;;;;;24.87;35.59;101731.69;5093939;28;20036;-77
2023/06/28 02:54:05;;;;;;;94.95;90.50;;;;;;;24.84;35.58;101724.84;5091930;28;20395;-77
2023/06/28 02:56:31;;;;;;;93.82;89.47;;;;;;;24.83;36.05;101734.28;5093159;28;20053;-79
2023/06/28 02:58:56;;;;;;;103.13;98.15;;;;;;;24.82;35.91;101726.28;5092381;28;20095;-76
2023/06/28 03:01:21;;;;;;;95.95;91.50;;;;;;;24.80;35.61;101729.38;5093362;28;20069;-76
2023/06/28 03:03:48;;;;;;;96.38;91.60;;;;;;;24.79;36.06;101738.78;5093883;28;20448;-77
2023/06/28 03:06:14;;;;;;;95.28;90.97;;;;;;;24.77;35.59;101721.72;5093053;28;20036;-78
2023/06/28 03:08:40;;;;;;;96.68;91.20;;;;;;;24.75;36.12;101725.94;5093223;28;20426;-78
2023/06/28 03:11:06;;;;;;;96.70;92.15;;;;;;;24.74;36.13;101727.06;5095472;28;20036;-77
2023/06/28 03:13:33;;;;;;;94.38;89.78;;;;;;;24.72;35.95;101732.06;5096227;28;20157;-79
2023/06/28 03:15:59;;;;;;;93.38;89.10;;;;;;;24.71;36.05;101722.16;5096018;28;20048;-76
2023/06/28 03:18:24;;;;;;;95.20;90.90;;;;;;;24.69;36.43;101728.00;5095617;28;20035;-76
2023/06/28 03:20:49;;;;;;;95.30;90.72;;;;;;;24.68;36.18;101728.34;5097677;28;20028;-76
2023/06/28 03:23:15;;;;;;;94.95;90.45;;;;;;;24.67;36.15;101733.03;5097292;28;20418;-76
2023/06/28 03:25:40;;;;;;;96.85;92.43;;;;;;;24.66;36.36;101736.09;5096665;28;20341;-77
2023/06/28 03:28:06;;;;;;;98.05;93.45;;;;;;;24.63;36.00;101733.97;5095609;28;20032;-77
2023/06/28 03:30:31;;;;;;;94.57;90.13;;;;;;;24.61;36.28;101731.53;5096566;28;20093;-79
2023/06/28 03:32:56;;;;;;;94.65;90.28;;;;;;;24.60;36.57;101735.44;5096965;28;20030;-76
2023/06/28 03:35:22;;;;;;;99.38;94.88;;;;;;;24.57;36.32;101731.34;5095533;28;20036;-76
2023/06/28 03:37:54;;;;;;;94.43;90.00;;;;;;;24.56;36.50;101726.13;5096521;28;20056;-77
2023/06/28 03:40:20;;;;;;;94.65;90.30;;;;;;;24.55;36.82;101725.31;5096912;28;20028;-75
2023/06/28 03:42:47;;;;;;;95.82;91.43;;;;;;;24.53;36.33;101724.81;5096653;28;20024;-76
2023/06/28 03:45:13;;;;;;;98.65;94.05;;;;;;;24.51;36.58;101724.28;5096521;28;20135;-75
2023/06/28 03:47:38;;;;;;;94.35;89.78;;;;;;;24.50;36.66;101721.88;5096367;28;20024;-75
2023/06/28 03:50:04;;;;;;;95.35;90.97;;;;;;;24.49;36.97;101723.78;5096432;28;20028;-75
2023/06/28 03:52:30;;;;;;;95.15;90.65;;;;;;;24.48;36.61;101718.59;5096768;28;20036;-75
2023/06/28 03:54:55;;;;;;;93.97;89.15;;;;;;;24.45;36.44;101720.03;5096231;28;20480;-76
2023/06/28 03:57:21;;;;;;;93.82;89.55;;;;;;;24.44;36.51;101717.53;5095325;28;20093;-76
2023/06/28 03:59:47;;;;;;;91.90;87.75;;;;;;;24.41;36.78;101714.28;5095706;28;20032;-76
2023/06/28 04:02:12;;;;;;;93.00;88.60;;;;;;;24.39;36.60;101716.56;5096474;28;20069;-76
2023/06/28 04:04:38;;;;;;;96.43;91.82;;;;;;;24.39;36.57;101718.47;5096302;28;20036;-77
2023/06/28 04:07:03;;;;;;;93.18;88.95;;;;;;;24.37;36.95;101707.75;5094710;28;20067;-76
2023/06/28 04:09:29;;;;;;;94.57;89.25;;;;;;;24.36;36.71;101719.91;5095293;28;20105;-76
2023/06/28 04:11:54;;;;;;;97.75;92.70;;;;;;;24.34;36.85;101707.56;5096669;28;20060;-76
2023/06/28 04:14:20;;;;;;;93.55;89.05;;;;;;;24.33;36.70;101705.94;5094896;28;20032;-78
2023/06/28 04:16:45;;;;;;;94.85;90.55;;;;;;;24.32;36.80;101712.59;5094840;28;20070;-76
2023/06/28 04:19:10;;;;;;;93.13;88.93;;;;;;;24.30;37.00;101712.09;5095985;28;20028;-76
2023/06/28 04:21:36;;;;;;;90.68;86.38;;;;;;;24.28;37.32;101712.38;5095908;28;20066;-75
2023/06/28 04:24:02;;;;;;;93.30;89.00;;;;;;;24.26;37.29;101714.63;5096181;28;20082;-76
2023/06/28 04:26:27;;;;;;;92.43;87.90;;;;;;;24.26;37.21;101713.84;5095856;28;20555;-76
2023/06/28 04:28:53;;;;;;;91.97;87.85;;;;;;;24.24;37.02;101707.78;5094882;28;20052;-76
2023/06/28 04:31:18;;;;;;;95.25;90.45;;;;;;;24.23;37.00;101708.94;5095986;28;20456;-76
2023/06/28 04:33:44;;;;;;;96.97;92.57;;;;;;;24.21;37.40;101716.72;5095651;28;20028;-76
2023/06/28 04:36:11;;;;;;;92.15;87.85;;;;;;;24.20;37.45;101724.19;5094903;28;20029;-76
2023/06/28 04:38:37;;;;;;;91.82;87.40;;;;;;;24.18;37.19;101718.16;5095927;28;20028;-76
2023/06/28 04:41:03;;;;;;;94.82;90.50;;;;;;;24.16;37.20;101718.44;5095239;28;20039;-78
2023/06/28 04:43:29;;;;;;;93.63;89.30;;;;;;;24.14;37.05;101717.97;5097110;28;20060;-77
2023/06/28 04:45:55;;;;;;;91.80;87.30;;;;;;;24.14;37.54;101725.41;5095443;28;20451;-80
2023/06/28 04:48:21;;;;;;;92.65;88.07;;;;;;;24.12;37.33;101724.94;5094486;28;20028;-78
2023/06/28 04:50:47;;;;;;;93.22;88.78;;;;;;;24.10;37.01;101714.19;5095739;28;20108;-75
2023/06/28 04:53:13;;;;;;;92.45;88.10;;;;;;;24.09;37.60;101708.97;5094199;28;20460;-75
2023/06/28 04:55:38;;;;;;;89.22;85.13;;;;;;;24.08;37.71;101710.09;5094955;28;20093;-77
2023/06/28 04:58:05;;;;;;;91.38;87.28;;;;;;;24.06;37.12;101715.94;5095343;28;20529;-76
2023/06/28 05:00:32;;;;;;;95.78;91.35;;;;;;;24.05;37.69;101708.78;5094995;28;20043;-75
2023/06/28 05:03:01;;;;;;;91.13;87.03;;;;;;;24.04;37.36;101709.91;5095115;28;20035;-76
2023/06/28 05:05:27;;;;;;;90.18;85.57;;;;;;;24.03;37.72;101718.50;5093630;28;20520;-76
2023/06/28 05:07:53;;;;;;;94.55;90.05;;;;;;;24.01;37.61;101705.00;5095060;28;20036;-76
2023/06/28 05:10:22;;;;;;;90.93;86.28;;;;;;;24.00;37.30;101711.66;5094672;28;20069;-77
2023/06/28 05:12:50;;;;;;;90.43;86.15;;;;;;;23.98;37.47;101711.97;5095087;28;20028;-79
2023/06/28 05:15:16;;;;;;;89.75;85.63;;;;;;;23.97;38.02;101704.81;5094800;28;20027;-79
2023/06/28 05:17:43;;;;;;;90.90;86.50;;;;;;;23.96;38.49;101707.88;5093603;28;20410;-80
2023/06/28 05:20:09;;;;;;;90.65;86.25;;;;;;;23.95;38.04;101704.31;5095439;28;20097;-85
2023/06/28 05:22:34;;;;;;;88.05;83.88;;;;;;;23.94;38.12;101713.72;5094936;28;20123;-81
2023/06/28 05:24:59;;;;;;;88.57;84.38;;;;;;;23.92;38.41;101713.22;5094165;28;20132;-82
2023/06/28 05:27:25;;;;;;;90.68;86.47;;;;;;;23.92;38.55;101712.41;5093917;28;20044;-82
2023/06/28 05:29:50;;;;;;;92.38;88.13;;;;;;;23.90;38.16;101709.13;5077358;28;20039;-82
2023/06/28 05:32:16;;;;;;;91.93;87.30;;;;;;;23.89;38.63;101710.22;5077100;28;20044;-80
2023/06/28 05:34:41;;;;;;;89.05;84.80;;;;;;;23.88;38.51;101716.91;5076187;28;20047;-77
2023/06/28 05:37:07;;;;;;;90.10;85.85;;;;;;;23.86;38.50;101717.19;5094516;28;20036;-75
2023/06/28 05:39:32;;;;;;;88.22;83.82;;;;;;;23.85;38.30;101714.75;5093079;28;20388;-77
2023/06/28 05:41:57;;;;;;;88.85;84.68;;;;;;;23.84;38.57;101713.09;5093089;28;20498;-79
2023/06/28 05:44:23;;;;;;;88.88;84.40;;;;;;;23.82;38.43;101712.63;5094428;28;20036;-76
2023/06/28 05:46:49;;;;;;;90.13;85.97;;;;;;;23.79;38.23;101715.97;5093009;28;20077;-76
2023/06/28 05:49:14;;;;;;;90.28;86.00;;;;;;;23.80;38.26;101712.09;5075821;28;20472;-77
2023/06/28 05:51:40;;;;;;;90.28;86.05;;;;;;;23.78;38.38;101708.84;5094448;28;20051;-77
2023/06/28 05:54:05;;;;;;;88.38;84.18;;;;;;;23.77;38.49;101707.22;5094060;28;20471;-77
2023/06/28 05:56:31;;;;;;;90.75;86.32;;;;;;;23.75;38.52;101704.75;5093954;28;20127;-77
2023/06/28 05:58:57;;;;;;;89.28;84.97;;;;;;;23.74;38.38;101709.47;5093968;28;20115;-76
2023/06/28 06:01:23;;;;;;;92.35;87.75;;;;;;;23.72;38.51;101708.94;5093928;28;20032;-77
2023/06/28 06:03:49;;;;;;;89.97;85.28;;;;;;;23.72;38.55;101705.34;5093873;28;20059;-77
2023/06/28 06:06:15;;;;;;;88.13;83.97;;;;;;;23.70;38.71;101711.16;5093949;28;20082;-75
2023/06/28 06:08:40;;;;;;;87.43;83.32;;;;;;;23.70;38.54;101715.88;5093390;28;20035;-83
2023/06/28 06:11:05;;;;;;;90.38;85.85;;;;;;;23.69;38.19;101712.28;5092238;28;20036;-77
2023/06/28 06:13:31;;;;;;;88.72;84.43;;;;;;;23.68;38.40;101718.09;5093827;28;20128;-76
2023/06/28 06:15:56;;;;;;;88.38;84.18;;;;;;;23.67;38.37;101714.53;5093677;28;20111;-75
2023/06/28 06:18:22;;;;;;;89.43;85.07;;;;;;;23.65;38.43;101707.69;5092249;28;20059;-74
2023/06/28 06:20:48;;;;;;;89.38;85.07;;;;;;;23.64;38.59;101709.66;5075497;28;20498;-82
2023/06/28 06:23:14;;;;;;;88.57;84.50;;;;;;;23.63;39.02;101704.44;5092207;28;20063;-85
2023/06/28 06:25:39;;;;;;;90.95;86.65;;;;;;;23.62;39.02;101720.16;5092075;28;20493;-75
2023/06/28 06:28:05;;;;;;;90.38;86.05;;;;;;;23.61;38.48;101721.31;5093315;28;20464;-76
2023/06/28 06:30:30;;;;;;;87.97;83.57;;;;;;;23.61;38.55;101720.47;5093515;28;20110;-80
2023/06/28 06:32:56;;;;;;;87.55;83.35;;;;;;;23.60;38.87;101716.88;5093269;28;20115;-76
2023/06/28 06:35:21;;;;;;;89.25;85.05;;;;;;;23.59;39.10;101717.22;5091995;28;20503;-75
2023/06/28 06:37:46;;;;;;;91.05;86.65;;;;;;;23.58;38.99;101712.81;5092107;28;20110;-78
2023/06/28 06:40:12;;;;;;;88.97;84.88;;;;;;;23.57;38.95;101714.75;5093093;28;20032;-77
2023/06/28 06:42:38;;;;;;;88.70;84.60;;;;;;;23.55;38.71;101709.53;5093264;28;20111;-76
2023/06/28 06:45:05;;;;;;;85.68;81.70;;;;;;;23.54;39.10;101705.16;5093747;28;20441;-75
2023/06/28 06:47:31;;;;;;;88.95;84.78;;;;;;;23.52;39.07;101712.91;5095930;28;20130;-76
2023/06/28 06:49:56;;;;;;;89.82;85.22;;;;;;;23.52;38.97;101712.09;5096202;28;20067;-79
2023/06/28 06:52:22;;;;;;;92.25;88.03;;;;;;;23.50;38.60;101708.81;5095998;28;20523;-77
2023/06/28 06:54:47;;;;;;;88.30;84.15;;;;;;;23.50;38.96;101715.16;5096702;28;20515;-80
2023/06/28 06:57:14;;;;;;;90.60;86.00;;;;;;;23.50;38.67;101717.09;5098249;28;20040;-77
2023/06/28 06:59:39;;;;;;;88.82;84.45;;;;;;;23.49;39.10;101718.22;5096848;28;20513;-75
2023/06/28 07:02:05;;;;;;;86.53;82.47;;;;;;;23.48;38.98;101719.34;5096955;28;20065;-79
2023/06/28 07:04:31;;;;;;;88.70;84.40;;;;;;;23.48;38.86;101716.59;5079742;28;20028;-75
2023/06/28 07:06:56;;;;;;;88.43;83.93;;;;;;;23.46;39.03;101716.06;5095770;28;20032;-76
2023/06/28 07:09:22;;;;;;;88.78;84.63;;;;;;;23.45;38.83;101717.19;5095475;28;20399;-75
2023/06/28 07:11:47;;;;;;;89.93;85.68;;;;;;;23.45;38.69;101719.97;5095800;28;20055;-75
2023/06/28 07:14:13;;;;;;;87.78;83.40;;;;;;;23.44;39.20;101724.66;5095604;28;20040;-75
2023/06/28 07:16:38;;;;;;;86.75;82.65;;;;;;;23.44;39.17;101721.09;5095700;28;20399;-73
2023/06/28 07:19:05;;;;;;;86.72;82.63;;;;;;;23.43;39.34;101723.00;5096532;28;20024;-75
2023/06/28 07:21:31;;;;;;;90.85;86.13;;;;;;;23.41;38.95;101721.69;5095623;28;20032;-74
2023/06/28 07:23:56;;;;;;;87.53;83.43;;;;;;;23.41;39.50;101722.53;5096875;28;20028;-75
2023/06/28 07:26:23;;;;;;;87.28;82.80;;;;;;;23.40;39.35;101726.38;5096817;28;20028;-75
2023/06/28 07:28:50;;;;;;;85.63;81.63;;;;;;;23.40;39.21;101726.38;5096603;28;20482;-76
2023/06/28 07:31:15;;;;;;;85.95;81.18;;;;;;;23.39;39.38;101718.44;5096653;28;20036;-75
2023/06/28 07:33:41;;;;;;;86.43;82.15;;;;;;;23.39;38.94;101727.53;5078873;28;20035;-76
2023/06/28 07:36:06;;;;;;;83.82;79.72;;;;;;;23.39;39.21;101724.75;5096182;28;20035;-75
2023/06/28 07:38:32;;;;;;;89.05;84.50;;;;;;;23.38;38.91;101731.38;5078588;28;20097;-75
2023/06/28 07:40:57;;;;;;;87.13;82.32;;;;;;;23.37;39.34;101723.44;5095096;28;20123;-76
2023/06/28 07:43:23;;;;;;;85.38;81.35;;;;;;;23.38;39.21;101722.31;5095152;28;20483;-76
2023/06/28 07:45:48;;;;;;;86.63;82.45;;;;;;;23.37;39.21;101720.69;5096196;28;20391;-75
2023/06/28 07:48:13;;;;;;;88.10;83.80;;;;;;;23.36;39.27;101725.38;5096119;28;20520;-76
2023/06/28 07:50:39;;;;;;;85.90;81.78;;;;;;;23.37;39.45;101728.94;5096201;28;20146;-75
2023/06/28 07:53:04;;;;;;;85.30;80.80;;;;;;;23.36;39.42;101730.91;5097016;28;20123;-75
2023/06/28 07:55:30;;;;;;;83.63;79.45;;;;;;;23.36;39.71;101728.13;5095647;28;20052;-75
2023/06/28 07:57:57;;;;;;;86.60;82.32;;;;;;;23.36;39.52;101728.13;5094460;28;20453;-75
2023/06/28 08:00:22;;;;;;;84.38;80.18;;;;;;;23.35;39.41;101720.97;5096229;28;20032;-76
2023/06/28 08:02:48;;;;;;;84.40;80.25;;;;;;;23.35;39.36;101720.16;5095966;28;20115;-76
2023/06/28 08:05:14;;;;;;;82.75;78.60;;;;;;;23.36;39.45;101719.03;5095823;28;20058;-75
2023/06/28 08:07:40;;;;;;;85.90;81.60;;;;;;;23.35;39.11;101723.72;5094797;28;20101;-75
2023/06/28 08:10:06;;;;;;;84.05;79.97;;;;;;;23.35;39.25;101723.72;5095654;28;20036;-75
2023/06/28 08:12:32;;;;;;;83.55;79.53;;;;;;;23.35;39.71;101729.25;5095918;28;20032;-76
2023/06/28 08:14:57;;;;;;;85.20;81.15;;;;;;;23.35;39.65;101720.16;5094554;28;20039;-75
2023/06/28 08:17:22;;;;;;;83.78;79.78;;;;;;;23.35;39.46;101715.47;5094550;28;20063;-77
2023/06/28 08:19:48;;;;;;;85.80;81.65;;;;;;;23.35;39.53;101715.47;5095631;28;20479;-75
2023/06/28 08:22:13;;;;;;;85.13;80.95;;;;;;;23.36;39.73;101724.53;5095140;28;20106;-78
2023/06/28 08:24:39;;;;;;;88.93;84.28;;;;;;;23.36;39.52;101719.03;5095704;28;20040;-76
2023/06/28 08:27:06;;;;;;;86.22;82.07;;;;;;;23.36;39.52;101724.53;5077306;28;20051;-77
2023/06/28 08:29:31;;;;;;;88.25;83.95;;;;;;;23.36;40.05;101719.03;5094485;28;20093;-76
2023/06/28 08:31:57;;;;;;;87.15;83.10;;;;;;;23.35;39.68;101720.97;5095551;28;20059;-76
2023/06/28 08:34:22;;;;;;;86.72;82.35;;;;;;;23.35;39.78;101720.16;5095202;28;20423;-77
2023/06/28 08:36:48;;;;;;;86.53;81.20;;;;;;;23.36;39.64;101719.88;5095251;28;20028;-81
2023/06/28 08:39:13;;;;;;;86.32;81.75;;;;;;;23.36;39.68;101711.59;5095239;28;20032;-78
2023/06/28 08:41:40;;;;;;;88.88;84.63;;;;;;;23.36;40.16;101708.00;5093853;28;20032;-77
2023/06/28 08:44:09;;;;;;;84.80;80.65;;;;;;;23.37;39.73;101709.66;5095233;28;20031;-77
2023/06/28 08:46:34;;;;;;;86.03;82.05;;;;;;;23.38;40.02;101708.50;5095779;28;20036;-80
2023/06/28 08:49:01;;;;;;;87.18;82.88;;;;;;;23.38;39.70;101705.75;5093979;28;20028;-76
2023/06/28 08:51:26;;;;;;;86.20;81.88;;;;;;;23.38;39.67;101714.03;5095458;28;20028;-76
2023/06/28 08:53:54;;;;;;;85.53;81.22;;;;;;;23.38;39.96;101714.84;5093641;28;20032;-76
2023/06/28 08:56:19;;;;;;;85.30;81.35;;;;;;;23.39;40.04;101722.00;5093448;28;20044;-76
2023/06/28 08:58:49;;;;;;;83.40;79.47;;;;;;;23.39;40.20;101716.50;5095140;28;20490;-76
2023/06/28 09:01:14;;;;;;;83.78;79.65;;;;;;;23.41;40.03;101716.16;5095218;28;20024;-76
2023/06/28 09:03:42;;;;;;;85.90;81.60;;;;;;;23.40;40.06;101711.78;5093282;28;20046;-78
2023/06/28 09:06:08;;;;;;;84.10;80.20;;;;;;;23.41;39.91;101708.75;5094460;28;20410;-76
2023/06/28 09:08:34;;;;;;;84.85;80.75;;;;;;;23.42;40.11;101704.84;5093551;28;20107;-76
2023/06/28 09:11:03;;;;;;;85.43;81.35;;;;;;;23.43;40.33;101713.94;5093411;28;20035;-76
2023/06/28 09:13:29;;;;;;;84.38;79.88;;;;;;;23.43;39.88;101711.16;5093249;28;20036;-75
2023/06/28 09:15:55;;;;;;;80.68;76.88;;;;;;;23.43;39.75;101714.75;5092938;28;20081;-77
2023/06/28 09:18:21;;;;;;;82.75;78.75;;;;;;;23.44;39.80;101710.88;5094492;28;20032;-76
2023/06/28 09:20:49;;;;;;;86.82;81.20;;;;;;;23.45;40.29;101715.25;5093014;28;20097;-75
2023/06/28 09:23:22;;;;;;;84.20;80.13;;;;;;;23.47;40.42;101715.78;5093174;28;20028;-75
2023/06/28 09:25:49;;;;;;;86.40;82.03;;;;;;;23.48;40.46;101711.06;5093511;28;20079;-78
2023/06/28 09:28:15;;;;;;;87.07;82.30;;;;;;;23.50;40.21;101714.34;5094261;28;20024;-77
2023/06/28 09:30:40;;;;;;;86.97;82.88;;;;;;;23.50;39.90;101700.56;5092913;28;20039;-76
2023/06/28 09:33:06;;;;;;;89.13;83.90;;;;;;;23.51;40.36;101704.94;5093036;28;20122;-77
2023/06/28 09:35:31;;;;;;;86.40;82.43;;;;;;;23.53;40.57;101697.97;5094222;28;20077;-76
2023/06/28 09:38:04;;;;;;;85.35;81.05;;;;;;;23.54;40.35;101693.31;5094161;28;20040;-78
2023/06/28 09:40:34;;;;;;;86.05;81.85;;;;;;;23.56;40.39;101693.78;5076870;28;20032;-79
2023/06/28 09:42:59;;;;;;;85.72;81.20;;;;;;;23.58;40.91;101694.31;5093696;28;20443;-80
2023/06/28 09:45:26;;;;;;;93.00;84.85;;;;;;;23.60;40.60;101697.59;5093604;28;20039;-79
2023/06/28 09:47:58;;;;;;;86.10;81.80;;;;;;;23.63;40.49;101698.91;5093946;28;20066;-76
2023/06/28 09:50:46;;;;;;;85.38;81.10;;;;;;;23.65;40.53;101699.44;5093605;28;20456;-76
2023/06/28 09:53:14;;;;;;;85.60;81.53;;;;;;;23.66;40.88;101701.88;5094474;28;20043;-77
2023/06/28 09:55:41;;;;;;;88.83;84.27;;;;;;;23.69;40.89;101705.97;5092114;28;20044;-76
2023/06/28 09:58:09;;;;;;;;;;;;;;;23.71;40.74;101704.53;5094865;28;20109;-77
2023/06/28 10:00:39;;;;;;;84.32;79.68;;;;;;;23.73;40.68;101698.72;5093779;28;20406;-78
2023/06/28 10:03:09;;;;;;;86.85;82.55;;;;;;;23.75;40.60;101689.00;5093654;28;20470;-75
2023/06/28 10:05:36;;;;;;;86.57;82.63;;;;;;;23.79;40.85;101685.63;5093191;28;20020;-76
2023/06/28 10:08:06;;;;;;;86.95;82.53;;;;;;;23.82;40.93;101680.31;5094155;28;20458;-77
2023/06/28 10:10:34;;;;;;;87.10;83.07;;;;;;;23.84;40.75;101686.34;5093449;28;20059;-77
2023/06/28 10:13:01;;;;;;;88.90;84.57;;;;;;;23.87;40.91;101680.22;5093325;28;20062;-76
2023/06/28 10:15:34;;;;;;;89.03;84.82;;;;;;;23.91;40.79;101680.41;5091585;28;20471;-75
2023/06/28 10:18:00;;;;;;;91.75;87.25;;;;;;;23.94;40.97;101688.06;5091864;28;20032;-77
2023/06/28 10:20:26;;;;;;;89.32;84.57;;;;;;;23.97;40.63;101682.75;5092083;28;20055;-75
2023/06/28 10:22:52;;;;;;;90.95;86.45;;;;;;;24.01;41.11;101680.16;5075026;28;20468;-82
2023/06/28 10:25:19;;;;;;;90.80;86.13;;;;;;;24.05;40.84;101677.63;5093032;28;20040;-75
2023/06/28 10:27:46;;;;;;;89.38;84.80;;;;;;;24.09;41.08;101673.09;5093049;28;20532;-82
2023/06/28 10:30:12;;;;;;;91.40;87.07;;;;;;;24.12;40.82;101675.25;5093108;28;20103;-75
2023/06/28 10:32:37;;;;;;;92.25;87.85;;;;;;;24.15;40.68;101682.91;5091491;28;20126;-77
2023/06/28 10:35:06;;;;;;;92.82;88.53;;;;;;;24.18;41.15;101685.84;5093006;28;20028;-75
2023/06/28 10:37:31;;;;;;;;;;;;;;;24.23;40.46;101684.09;5093032;28;20161;-76
2023/06/28 10:39:58;;;;;;;91.97;87.55;;;;;;;24.26;40.35;101683.47;5091828;28;19957;-76
2023/06/28 10:42:24;;;;;;;89.90;85.63;;;;;;;24.29;40.53;101689.19;5092248;28;20472;-76
2023/06/28 10:44:58;;;;;;;95.88;90.97;;;;;;;24.32;40.59;101677.50;5092601;28;20089;-78
2023/06/28 10:47:24;;;;;;;92.63;87.72;;;;;;;24.37;40.79;101671.06;5091906;28;20095;-74
2023/06/28 10:50:16;;;;;;;94.30;89.22;;;;;;;24.40;40.65;101676.75;5091605;28;20076;-76
2023/06/28 10:53:02;;;;;;;93.55;89.07;;;;;;;24.46;40.60;101671.13;5088669;28;20048;-76
2023/06/28 10:55:32;;;;;;;93.65;88.72;;;;;;;24.48;40.32;101669.69;5093396;28;20126;-76
2023/06/28 10:58:10;;;;;;;97.30;92.53;;;;;;;24.53;40.40;101666.00;5092754;28;20039;-77
2023/06/28 11:00:41;;;;;;;98.13;93.57;;;;;;;24.56;40.49;101659.84;5092244;28;20043;-78
2023/06/28 11:03:07;;;;;;;91.28;86.60;;;;;;;24.59;40.37;101653.66;5092658;28;20426;-76
2023/06/28 11:05:45;;;;;;;90.32;85.95;;;;;;;24.65;41.17;101657.13;5091817;28;20035;-78